If you wish to contribute or participate in the discussions about articles you are invited to join SKYbrary as a registered user

 Actions

Istres Le Tubé/Istres Air Base (BA 125) Airport

From SKYbrary Wiki

LFMI
Airport
ICAO: LFMI
Summary
Name Istres Le Tubé/Istres Air Base (BA 125) Airport
Region Europe
Territory France FR.gif
Location , Provence-Alpes-Cote d'Azur
Serving Istres
Elevation 24.994 m
82 ft
82 ft24.994 m
Type medium airport
Coordinates 43° 31' 21.85" N, 4° 55' 25.84" E
Runways
Designator Length Width Surface ROPS
15/33 3750 m12,303.15 ft
60 m196.85 ft
ASP yes/yes


METAR
Observation LFMI 241500Z AUTO 24012KT CAVOK 31/16 Q1017 NOSIG
Station Istres
Date/Time 24 August 2019 15:00:00
Wind direction 240°
Wind speed 12 kts
Lowest cloud amount clouds and visibility OK
Temperature 31°C
Dew point 16°C
Humidity 40%
QNH 1017 hPa
Weather condition n/a